Huvudsida
METAR-TAF:

METAR-TAF

Flygplatser :

Tabarka, Tunisien

latitud: 36-57N, longitud: 008-45E, höjd: 20 m

Aktuellt väderrapport

Denna rapport gjordes för 40 minuter sedan, klockan 20:00 UTC
Stilla vind
Temperatur 12°C
Fuktighet 100%
Tryck 1023 hPa
Sikt: 8000 m
Spridda moln på en höjd av 2000 ft

METAR: DTKA 262000Z 00000KT 8000 SCT020 12/12 Q1023 NOSIG

Tid: 21:40 (20:40 UTC)

Väderprognos

Denna rapport gjordes för 2 timmar och 40 minuter sedan, klockan 18:00 UTC
Prognos gäller från 26 kl. 19 UTC till 27 kl. 04 UTC
Vind 14 kt från väst/sydväst
Sikt 10 km eller mer
Spridda moln på en höjd av 2000 ft
Sannolikhet 40%
från 26 kl. 22 UTC till 27 kl. 02 UTC
Sikt: 4000 m
Få moln på en höjd av 2600 ft, Cumulonimbus.
åska, lätt regn

TAF: DTKA 261800Z 2619/2704 25014KT 9999 SCT020 PROB40 2622/2702 4000 -TSRA FEW026CB

Aktuella väderrapporter och prognoser från 4000 flygplatser (METAR- och TAF-rapporter).

De tillgängliga stationerna syns som gula och röda prickar på kartan.

För musen över prickarna för att se namnen på stationerna.

Klicka sedan för att få väderrapporter och prognoser.

För att ändra kartan: Klicka på de gröna knapparna med ett svart kors på för att zooma in; den gröna knappen med ett streck på för att zooma ut; eller på de gröna pilarna för angränsande kartor.


METAR-TAF: